createdAt,value
2023-01-18T20:33:40.924Z,19.76
2023-01-18T20:34:40.884Z,19.71
2023-01-18T20:35:41.111Z,19.69
2023-01-18T20:36:40.251Z,19.64
2023-01-18T20:37:41.012Z,19.62
2023-01-18T20:38:41.006Z,19.56
2023-01-18T20:39:41.273Z,19.54
2023-01-18T20:40:41.328Z,19.49
2023-01-18T20:41:40.688Z,19.48
2023-01-18T20:42:40.501Z,19.45
2023-01-18T20:43:40.516Z,19.45
2023-01-18T20:45:04.923Z,19.44
2023-01-18T20:45:40.338Z,19.41
2023-01-18T20:46:40.543Z,19.40
2023-01-18T20:47:40.153Z,19.40
2023-01-18T20:48:41.694Z,19.37
2023-01-18T20:49:40.277Z,19.37
2023-01-18T20:50:40.878Z,19.36
2023-01-18T20:51:40.090Z,19.34
2023-01-18T20:52:40.488Z,19.34
2023-01-18T20:53:40.095Z,19.34
2023-01-18T20:54:40.338Z,19.33
2023-01-18T20:55:40.215Z,19.33
2023-01-18T20:56:40.053Z,19.30
2023-01-18T20:57:40.147Z,19.31
2023-01-18T20:58:40.023Z,19.30
2023-01-18T20:59:40.026Z,19.30
2023-01-18T21:00:40.104Z,19.30
2023-01-18T21:01:40.148Z,19.29
2023-01-18T21:02:40.080Z,19.27
2023-01-18T21:03:39.988Z,19.29
2023-01-18T21:04:40.089Z,19.27
2023-01-18T21:05:39.959Z,19.27
2023-01-18T21:06:39.904Z,19.26
2023-01-18T21:07:41.664Z,19.27
2023-01-18T21:08:39.917Z,19.27
2023-01-18T21:09:39.952Z,19.27
2023-01-18T21:10:39.928Z,19.27
2023-01-18T21:11:39.881Z,19.27
2023-01-18T21:12:39.875Z,19.27
2023-01-18T21:13:39.825Z,19.26
2023-01-18T21:14:39.890Z,19.27
2023-01-18T21:15:39.793Z,19.27
2023-01-18T21:16:39.944Z,19.27
2023-01-18T21:17:39.867Z,19.27
2023-01-18T21:18:39.826Z,19.26
2023-01-18T21:19:39.821Z,19.26
2023-01-18T21:20:39.768Z,19.24
2023-01-18T21:21:39.803Z,19.22
2023-01-18T21:22:39.755Z,19.24
2023-01-18T21:23:39.822Z,19.24
2023-01-18T21:24:39.723Z,19.22
2023-01-18T21:25:39.769Z,19.21
2023-01-18T21:26:39.823Z,19.22
2023-01-18T21:27:39.733Z,19.21
2023-01-18T21:28:39.678Z,19.21
2023-01-18T21:29:39.793Z,19.21
2023-01-18T21:30:39.673Z,19.18
2023-01-18T21:31:41.043Z,19.18
2023-01-18T21:32:39.665Z,19.16
2023-01-18T21:33:39.656Z,19.16
2023-01-18T21:34:39.638Z,19.15
2023-01-18T21:35:39.609Z,19.14
2023-01-18T21:36:39.628Z,19.14
2023-01-18T21:37:39.563Z,19.11
2023-01-18T21:38:39.554Z,19.11
2023-01-18T21:39:39.590Z,19.09
2023-01-18T21:40:39.630Z,19.08
2023-01-18T21:41:39.610Z,19.09
2023-01-18T21:42:39.823Z,19.08
2023-01-18T21:43:39.577Z,19.08
2023-01-18T21:44:39.581Z,19.02
2023-01-18T21:45:39.548Z,19.02
2023-01-18T21:46:39.536Z,19.00
2023-01-18T21:47:39.548Z,18.98
2023-01-18T21:48:39.462Z,18.96
2023-01-18T21:50:40.464Z,18.93
2023-01-18T21:51:39.443Z,18.90
2023-01-18T21:52:39.456Z,18.89
2023-01-18T21:53:39.399Z,18.90
2023-01-18T21:54:39.420Z,18.89
2023-01-18T21:55:39.397Z,18.89
2023-01-18T21:56:39.395Z,18.89
2023-01-18T21:57:39.378Z,18.89
2023-01-18T21:58:39.338Z,18.90
2023-01-18T21:59:39.342Z,18.88
2023-01-18T22:00:39.329Z,18.88
2023-01-18T22:01:39.435Z,18.86
2023-01-18T22:02:39.356Z,18.84
2023-01-18T22:03:39.261Z,18.83
2023-01-18T22:04:39.295Z,18.83
2023-01-18T22:05:41.076Z,18.81
2023-01-18T22:06:39.228Z,18.80
2023-01-18T22:07:39.229Z,18.81
2023-01-18T22:08:39.229Z,18.80
2023-01-18T22:09:39.223Z,18.80
2023-01-18T22:10:39.178Z,18.78
2023-01-18T22:11:39.264Z,18.75
2023-01-18T22:12:39.238Z,18.75
2023-01-18T22:13:39.196Z,18.74
2023-01-18T22:14:39.249Z,18.73
2023-01-18T22:15:39.613Z,18.73
2023-01-18T22:16:39.246Z,18.73
2023-01-18T22:17:39.192Z,18.71
2023-01-18T22:18:39.167Z,18.71
2023-01-18T22:19:39.171Z,18.68
2023-01-18T22:20:39.263Z,18.70
2023-01-18T22:21:39.119Z,18.70
2023-01-18T22:22:39.085Z,18.68
2023-01-18T22:23:39.079Z,18.66
2023-01-18T22:24:39.106Z,18.66
2023-01-18T22:25:39.097Z,18.63
2023-01-18T22:26:39.068Z,18.65
2023-01-18T22:27:39.011Z,18.62
2023-01-18T22:28:39.030Z,18.62
2023-01-18T22:29:39.016Z,18.60
2023-01-18T22:30:39.036Z,18.60
2023-01-18T22:31:38.999Z,18.59
2023-01-18T22:32:39.020Z,18.60
2023-01-18T22:33:38.964Z,18.59
2023-01-18T22:34:38.941Z,18.58
2023-01-18T22:35:38.979Z,18.59
2023-01-18T22:36:38.924Z,18.56
2023-01-18T22:37:38.992Z,18.58
2023-01-18T22:38:38.901Z,18.56
2023-01-18T22:39:39.126Z,18.58
2023-01-18T22:40:38.907Z,18.55
2023-01-18T22:41:39.171Z,18.55
2023-01-18T22:42:38.912Z,18.53
2023-01-18T22:43:49.295Z,18.55
2023-01-18T22:44:38.900Z,18.55
2023-01-18T22:45:38.837Z,18.52
2023-01-18T22:46:38.920Z,18.55
2023-01-18T22:47:50.161Z,18.53
2023-01-18T22:48:46.417Z,18.52
2023-01-18T22:49:39.022Z,18.52
2023-01-18T22:50:39.161Z,18.52
2023-01-18T22:51:38.849Z,18.50
2023-01-18T22:52:38.846Z,18.52
2023-01-18T22:53:40.048Z,18.52
2023-01-18T22:54:38.842Z,18.52
2023-01-18T22:55:50.951Z,18.53
2023-01-18T22:56:39.292Z,18.52
2023-01-18T22:58:03.784Z,18.55
2023-01-18T22:58:40.907Z,18.53
2023-01-18T22:59:39.795Z,18.55
2023-01-18T23:00:38.763Z,18.58
2023-01-18T23:01:39.359Z,18.58
2023-01-18T23:02:38.946Z,18.58
2023-01-18T23:03:39.982Z,18.59
2023-01-18T23:04:39.303Z,18.59
2023-01-18T23:05:40.193Z,18.60
2023-01-18T23:06:39.413Z,18.63
2023-01-18T23:07:41.137Z,18.63
2023-01-18T23:08:39.591Z,18.65
2023-01-18T23:09:39.220Z,18.63
2023-01-18T23:10:39.201Z,18.65
2023-01-18T23:11:39.051Z,18.66
2023-01-18T23:12:38.930Z,18.68
2023-01-18T23:13:39.012Z,18.70
2023-01-18T23:14:39.023Z,18.68
2023-01-18T23:15:38.979Z,18.68
2023-01-18T23:16:38.574Z,18.71
2023-01-18T23:17:39.077Z,18.70
2023-01-18T23:18:38.864Z,18.70
2023-01-18T23:19:39.454Z,18.70
2023-01-18T23:20:38.951Z,18.70
2023-01-18T23:21:38.947Z,18.71
2023-01-18T23:22:38.630Z,18.71
2023-01-18T23:23:49.936Z,18.73
2023-01-18T23:24:39.191Z,18.74
2023-01-18T23:25:40.067Z,18.74
2023-01-18T23:26:39.852Z,18.74
2023-01-18T23:28:13.218Z,18.74
2023-01-18T23:28:39.428Z,18.73
2023-01-18T23:29:39.037Z,18.71
2023-01-18T23:30:49.679Z,18.68
2023-01-18T23:31:39.372Z,18.70
2023-01-18T23:32:39.801Z,18.66
2023-01-18T23:33:39.640Z,18.65
2023-01-18T23:34:40.547Z,18.65
2023-01-18T23:35:39.043Z,18.63
2023-01-18T23:36:39.185Z,18.63
2023-01-18T23:38:01.921Z,18.62
2023-01-18T23:38:39.837Z,18.60
2023-01-18T23:39:44.925Z,18.62
2023-01-18T23:40:50.313Z,18.60
2023-01-18T23:41:39.327Z,18.60
2023-01-18T23:42:38.605Z,18.60
2023-01-18T23:43:39.415Z,18.60
2023-01-18T23:44:38.775Z,18.59
2023-01-18T23:45:38.364Z,18.59
2023-01-18T23:46:59.883Z,18.58
2023-01-18T23:47:39.865Z,18.58
2023-01-18T23:48:38.262Z,18.58
2023-01-18T23:49:39.998Z,18.56
2023-01-18T23:50:59.450Z,18.55
2023-01-18T23:52:03.266Z,18.56
2023-01-18T23:52:38.992Z,18.58
2023-01-18T23:53:38.454Z,18.56
2023-01-18T23:54:39.101Z,18.55
2023-01-18T23:59:40.115Z,18.52
